Time;durP1;ratioP1;P1;durP2;ratioP2;P2;SDS_P1;SDS_P2;PMS_P1;PMS_P2;Temp;Humidity;BMP_temperature;BMP_pressure;BME280_temperature;BME280_humidity;BME280_pressure;Samples;Min_cycle;Max_cycle;Signal;HPM_P1;HPM_P2
2022/02/04 00:05:35;;;;;;;13.70;12.30;;;;;;;;;;513423;28;653;-76
2022/02/04 00:07:37;;;;;;;13.25;11.93;;;;;;;;;;514098;28;809;-76
2022/02/04 00:08:09;;;;;;;13.15;11.70;;;;;;;;;;513734;28;1137;-76
2022/02/04 00:20:54;;;;;;;12.77;11.48;;;;;;;;;;514006;28;698;-76
2022/02/04 00:21:25;;;;;;;12.70;11.40;;;;;;;;;;513401;28;1627;-76
2022/02/04 00:22:07;;;;;;;13.05;11.23;;;;;;;;;;513882;28;808;-76
2022/02/04 00:22:42;;;;;;;14.15;11.93;;;;;;;;;;513653;28;1173;-76
2022/02/04 00:23:36;;;;;;;13.30;11.90;;;;;;;;;;507977;29;1400;-76
2022/02/04 00:23:40;;;;;;;14.32;11.50;;;;;;;;;;513892;28;816;-76
2022/02/04 00:23:52;;;;;;;12.90;11.50;;;;;;;;;;512978;28;1224;-76
2022/02/04 00:24:09;;;;;;;13.07;11.68;;;;;;;;;;514189;28;824;-76
2022/02/04 00:24:24;;;;;;;12.93;11.63;;;;;;;;;;513830;28;1256;-76
2022/02/04 00:24:39;;;;;;;12.67;11.37;;;;;;;;;;513921;28;1330;-76
2022/02/04 00:24:56;;;;;;;13.10;11.70;;;;;;;;;;511458;29;1216;-76
2022/02/04 00:26:37;;;;;;;12.93;11.52;;;;;;;;;;507926;29;851;-76
2022/02/04 00:26:58;;;;;;;12.82;11.48;;;;;;;;;;513809;28;883;-76
2022/02/04 00:27:19;;;;;;;13.15;11.75;;;;;;;;;;513435;28;1911;-77
2022/02/04 00:27:34;;;;;;;13.55;12.15;;;;;;;;;;515663;28;1377;-76
2022/02/04 00:27:51;;;;;;;13.67;11.70;;;;;;;;;;514560;28;1196;-76
2022/02/04 00:28:13;;;;;;;14.02;11.95;;;;;;;;;;513661;28;820;-76
2022/02/04 00:28:43;;;;;;;13.40;11.70;;;;;;;;;;513692;28;1280;-76
2022/02/04 00:29:20;;;;;;;13.32;11.20;;;;;;;;;;513360;28;931;-76
2022/02/04 00:30:05;;;;;;;13.27;11.30;;;;;;;;;;513523;28;860;-76
2022/02/04 00:30:18;;;;;;;12.25;11.00;;;;;;;;;;515141;28;1152;-76
2022/02/04 00:30:39;;;;;;;12.30;11.02;;;;;;;;;;516165;28;867;-76
2022/02/04 00:31:12;;;;;;;12.40;11.10;;;;;;;;;;516238;28;879;-76
2022/02/04 00:31:38;;;;;;;12.65;11.30;;;;;;;;;;515549;28;813;-76
2022/02/04 00:32:00;;;;;;;13.13;11.73;;;;;;;;;;515770;28;1303;-76
2022/02/04 00:32:19;;;;;;;13.55;11.90;;;;;;;;;;515138;28;1406;-76
2022/02/04 00:32:35;;;;;;;13.48;11.50;;;;;;;;;;515839;28;1494;-76
2022/02/04 00:32:53;;;;;;;13.18;11.43;;;;;;;;;;515461;28;1415;-76
2022/02/04 00:33:11;;;;;;;12.55;11.25;;;;;;;;;;515735;28;859;-76
2022/02/04 00:33:28;;;;;;;12.65;11.20;;;;;;;;;;513709;28;1428;-76
2022/02/04 00:33:46;;;;;;;12.75;11.43;;;;;;;;;;513429;28;1247;-76
2022/02/04 00:34:13;;;;;;;12.77;11.48;;;;;;;;;;513868;28;796;-76
2022/02/04 00:34:35;;;;;;;12.40;11.10;;;;;;;;;;513700;28;1405;-76
2022/02/04 00:34:59;;;;;;;12.85;11.50;;;;;;;;;;511631;29;1360;-76
2022/02/04 00:35:57;;;;;;;12.65;11.35;;;;;;;;;;513618;28;745;-76
2022/02/04 00:36:26;;;;;;;13.07;11.65;;;;;;;;;;513987;28;860;-76
2022/02/04 00:37:00;;;;;;;14.00;11.70;;;;;;;;;;516059;28;1251;-76
2022/02/04 00:37:35;;;;;;;13.40;11.48;;;;;;;;;;515982;28;804;-76
2022/02/04 00:38:05;;;;;;;12.50;11.20;;;;;;;;;;513069;28;1395;-76
2022/02/04 00:38:28;;;;;;;12.40;11.10;;;;;;;;;;511738;29;2175;-76
2022/02/04 00:38:48;;;;;;;12.40;11.10;;;;;;;;;;512092;29;845;-76
2022/02/04 00:39:09;;;;;;;14.25;11.77;;;;;;;;;;512831;28;765;-77
2022/02/04 00:39:30;;;;;;;13.40;11.70;;;;;;;;;;514041;28;880;-76
2022/02/04 00:39:54;;;;;;;13.55;11.80;;;;;;;;;;512328;28;1435;-76
2022/02/04 00:40:16;;;;;;;15.68;12.60;;;;;;;;;;513957;28;800;-76
2022/02/04 00:40:36;;;;;;;14.02;12.25;;;;;;;;;;516027;28;880;-76
2022/02/04 00:41:02;;;;;;;12.63;11.32;;;;;;;;;;514552;28;899;-76
2022/02/04 00:41:22;;;;;;;12.60;11.30;;;;;;;;;;512723;28;929;-76
2022/02/04 00:41:39;;;;;;;13.20;11.90;;;;;;;;;;513521;28;978;-76
2022/02/04 00:42:00;;;;;;;12.95;11.65;;;;;;;;;;515166;28;887;-76
2022/02/04 00:42:15;;;;;;;12.95;11.65;;;;;;;;;;515969;28;856;-76
2022/02/04 00:42:30;;;;;;;13.13;11.83;;;;;;;;;;513781;28;1190;-76
2022/02/04 00:42:46;;;;;;;13.25;11.85;;;;;;;;;;513911;28;758;-76
2022/02/04 00:43:06;;;;;;;12.60;11.37;;;;;;;;;;514017;28;801;-76
2022/02/04 00:43:21;;;;;;;12.57;11.27;;;;;;;;;;516036;28;829;-76
2022/02/04 00:43:38;;;;;;;12.87;11.57;;;;;;;;;;515997;28;1141;-76
2022/02/04 00:43:56;;;;;;;13.05;11.75;;;;;;;;;;515687;28;1395;-76
2022/02/04 00:44:25;;;;;;;12.77;11.48;;;;;;;;;;515828;28;844;-76
2022/02/04 00:44:42;;;;;;;13.65;11.27;;;;;;;;;;515844;28;1295;-76
2022/02/04 00:45:11;;;;;;;13.05;11.57;;;;;;;;;;515358;28;790;-76
2022/02/04 00:45:46;;;;;;;13.02;11.63;;;;;;;;;;515984;28;781;-76
2022/02/04 00:46:14;;;;;;;13.02;11.48;;;;;;;;;;514163;28;1363;-76
2022/02/04 00:47:21;;;;;;;12.70;11.40;;;;;;;;;;507906;29;1911;-76
2022/02/04 00:47:43;;;;;;;14.10;11.73;;;;;;;;;;510957;28;1254;-76
2022/02/04 00:48:12;;;;;;;13.75;11.70;;;;;;;;;;514008;28;876;-75
2022/02/04 00:48:59;;;;;;;13.07;11.68;;;;;;;;;;514095;28;891;-75
2022/02/04 00:49:10;;;;;;;13.68;12.10;;;;;;;;;;513913;28;1049;-75
2022/02/04 00:50:23;;;;;;;13.00;11.70;;;;;;;;;;505361;29;1458;-75
2022/02/04 00:50:54;;;;;;;13.70;11.30;;;;;;;;;;512312;28;1026;-75
2022/02/04 00:51:35;;;;;;;12.52;11.23;;;;;;;;;;513996;28;793;-75
2022/02/04 00:52:04;;;;;;;12.60;11.30;;;;;;;;;;514092;28;813;-75
2022/02/04 00:52:47;;;;;;;13.55;11.60;;;;;;;;;;514183;28;749;-75
2022/02/04 00:53:32;;;;;;;12.77;11.48;;;;;;;;;;514165;28;1021;-75
2022/02/04 00:54:27;;;;;;;14.27;11.90;;;;;;;;;;515915;28;836;-75
2022/02/04 00:55:10;;;;;;;13.02;11.57;;;;;;;;;;513704;28;879;-75
2022/02/04 00:55:34;;;;;;;12.65;11.35;;;;;;;;;;513983;28;825;-75
2022/02/04 00:56:35;;;;;;;12.82;11.52;;;;;;;;;;513794;28;783;-76
2022/02/04 01:06:26;;;;;;;12.88;11.57;;;;;;;;;;513938;28;817;-75
2022/02/04 01:25:53;;;;;;;13.00;11.60;;;;;;;;;;515080;28;1016;-76
2022/02/04 01:26:11;;;;;;;12.80;11.50;;;;;;;;;;514160;28;657;-76
2022/02/04 01:26:26;;;;;;;13.35;11.98;;;;;;;;;;514296;28;769;-76
2022/02/04 01:26:42;;;;;;;13.25;11.70;;;;;;;;;;514632;28;876;-75
2022/02/04 01:26:57;;;;;;;13.20;11.40;;;;;;;;;;514430;28;791;-75
2022/02/04 01:27:13;;;;;;;13.00;11.60;;;;;;;;;;514130;28;2003;-76
2022/02/04 01:27:29;;;;;;;12.88;11.55;;;;;;;;;;514405;28;856;-76
2022/02/04 01:27:46;;;;;;;13.07;11.77;;;;;;;;;;514215;28;1375;-76
2022/02/04 01:28:02;;;;;;;12.90;11.50;;;;;;;;;;516326;28;1466;-76
2022/02/04 01:28:17;;;;;;;12.90;11.50;;;;;;;;;;516194;28;1411;-75
2022/02/04 01:28:34;;;;;;;12.98;11.68;;;;;;;;;;515575;28;1993;-76
2022/02/04 01:28:52;;;;;;;12.80;11.48;;;;;;;;;;516278;28;820;-76
2022/02/04 01:29:09;;;;;;;12.45;11.15;;;;;;;;;;516355;28;836;-76
2022/02/04 01:29:29;;;;;;;12.73;11.43;;;;;;;;;;514019;28;1252;-76
2022/02/04 01:30:03;;;;;;;12.90;11.60;;;;;;;;;;513623;28;892;-75
2022/02/04 01:30:25;;;;;;;13.18;11.65;;;;;;;;;;511862;29;1264;-76
2022/02/04 01:30:42;;;;;;;12.90;11.52;;;;;;;;;;513522;28;903;-76
2022/02/04 01:30:58;;;;;;;12.57;11.10;;;;;;;;;;514323;28;833;-76
2022/02/04 01:31:19;;;;;;;12.75;11.30;;;;;;;;;;514268;28;926;-76
2022/02/04 01:31:35;;;;;;;12.70;11.38;;;;;;;;;;514182;28;1491;-75
2022/02/04 01:31:50;;;;;;;12.87;11.30;;;;;;;;;;513994;28;1162;-75
2022/02/04 01:32:07;;;;;;;12.80;11.30;;;;;;;;;;514340;28;1305;-76
2022/02/04 01:32:23;;;;;;;13.02;11.60;;;;;;;;;;514218;28;1253;-76
2022/02/04 01:32:38;;;;;;;13.20;11.43;;;;;;;;;;514278;28;785;-75
2022/02/04 01:32:53;;;;;;;13.07;11.37;;;;;;;;;;513656;28;1332;-76
2022/02/04 01:33:12;;;;;;;13.20;11.80;;;;;;;;;;514110;28;1241;-76
2022/02/04 01:33:28;;;;;;;12.90;11.60;;;;;;;;;;513167;28;805;-76
2022/02/04 01:33:45;;;;;;;12.77;11.45;;;;;;;;;;512144;29;1381;-75
2022/02/04 01:34:00;;;;;;;13.43;11.77;;;;;;;;;;509611;29;1797;-76
2022/02/04 01:34:15;;;;;;;12.83;11.53;;;;;;;;;;510990;29;1177;-76
2022/02/04 01:34:31;;;;;;;12.60;11.30;;;;;;;;;;510011;29;1147;-75
2022/02/04 01:34:46;;;;;;;12.70;11.40;;;;;;;;;;509984;29;1359;-76
2022/02/04 01:35:02;;;;;;;13.20;11.83;;;;;;;;;;509567;29;849;-76
2022/02/04 01:35:17;;;;;;;13.40;12.00;;;;;;;;;;510283;29;810;-76
2022/02/04 01:35:32;;;;;;;13.03;11.63;;;;;;;;;;510090;29;1240;-75
2022/02/04 01:35:48;;;;;;;12.80;11.43;;;;;;;;;;509904;29;829;-76
2022/02/04 01:36:03;;;;;;;12.88;11.48;;;;;;;;;;509722;29;1036;-76
2022/02/04 01:36:19;;;;;;;12.63;11.30;;;;;;;;;;510635;29;865;-76
2022/02/04 01:36:34;;;;;;;13.30;11.45;;;;;;;;;;512464;28;1226;-76
2022/02/04 01:36:49;;;;;;;13.47;11.60;;;;;;;;;;514177;28;702;-76
2022/02/04 01:37:05;;;;;;;12.70;11.30;;;;;;;;;;514085;28;761;-76
2022/02/04 01:37:20;;;;;;;13.30;11.27;;;;;;;;;;514286;28;792;-76
2022/02/04 01:37:35;;;;;;;13.80;11.47;;;;;;;;;;514347;28;785;-76
2022/02/04 01:37:50;;;;;;;13.10;11.63;;;;;;;;;;512111;28;1153;-76
2022/02/04 01:38:06;;;;;;;12.77;11.48;;;;;;;;;;511926;29;971;-75
2022/02/04 01:38:27;;;;;;;12.68;11.38;;;;;;;;;;510448;29;1425;-76
2022/02/04 01:38:43;;;;;;;12.75;11.45;;;;;;;;;;514498;28;1522;-75
2022/02/04 01:38:59;;;;;;;12.90;11.60;;;;;;;;;;514180;28;1332;-76
2022/02/04 01:39:14;;;;;;;13.20;11.67;;;;;;;;;;514462;28;974;-76
2022/02/04 01:39:29;;;;;;;13.20;11.60;;;;;;;;;;514434;28;796;-76
2022/02/04 01:39:45;;;;;;;13.02;11.63;;;;;;;;;;513293;28;1182;-76
2022/02/04 01:40:00;;;;;;;12.70;11.40;;;;;;;;;;513596;28;1217;-76
2022/02/04 01:40:15;;;;;;;12.77;11.47;;;;;;;;;;514745;28;888;-77
2022/02/04 01:40:31;;;;;;;13.10;11.70;;;;;;;;;;516386;28;936;-76
2022/02/04 01:40:46;;;;;;;13.20;11.80;;;;;;;;;;516421;28;986;-77
2022/02/04 01:41:01;;;;;;;13.27;11.87;;;;;;;;;;516467;28;915;-76
2022/02/04 01:41:17;;;;;;;13.25;11.95;;;;;;;;;;516382;28;1338;-76
2022/02/04 01:41:32;;;;;;;13.27;11.80;;;;;;;;;;516379;28;927;-77
2022/02/04 01:41:47;;;;;;;14.15;11.55;;;;;;;;;;514296;28;1327;-76
2022/02/04 01:42:03;;;;;;;13.23;11.47;;;;;;;;;;516361;28;1134;-76
2022/02/04 01:42:18;;;;;;;12.87;11.57;;;;;;;;;;515800;28;919;-77
2022/02/04 01:42:33;;;;;;;13.13;11.73;;;;;;;;;;516209;28;777;-76
2022/02/04 01:42:49;;;;;;;13.00;11.60;;;;;;;;;;513870;28;1216;-76
2022/02/04 01:43:04;;;;;;;12.63;11.33;;;;;;;;;;514243;28;734;-76
2022/02/04 01:43:23;;;;;;;12.90;11.55;;;;;;;;;;514299;28;691;-76
2022/02/04 01:43:39;;;;;;;13.27;11.63;;;;;;;;;;514325;28;892;-77
2022/02/04 01:43:55;;;;;;;12.88;11.50;;;;;;;;;;514457;28;1050;-76
2022/02/04 01:44:26;;;;;;;12.33;11.13;;;;;;;;;;512384;29;1547;-76
2022/02/04 01:44:42;;;;;;;12.95;11.55;;;;;;;;;;513244;28;809;-76
2022/02/04 01:44:57;;;;;;;12.60;11.30;;;;;;;;;;513601;28;782;-76
2022/02/04 01:45:12;;;;;;;12.85;11.55;;;;;;;;;;514078;28;824;-76
2022/02/04 01:45:28;;;;;;;13.47;11.93;;;;;;;;;;514405;28;912;-76
2022/02/04 01:45:43;;;;;;;13.97;11.80;;;;;;;;;;511776;28;1158;-76
2022/02/04 01:46:04;;;;;;;13.65;11.88;;;;;;;;;;513214;28;1003;-76
2022/02/04 01:46:19;;;;;;;12.88;11.57;;;;;;;;;;512500;28;1215;-76
2022/02/04 01:46:34;;;;;;;12.80;11.43;;;;;;;;;;514155;28;1128;-76
2022/02/04 01:46:50;;;;;;;12.93;11.57;;;;;;;;;;514498;28;793;-76
2022/02/04 01:47:05;;;;;;;13.00;11.60;;;;;;;;;;514379;28;904;-76
2022/02/04 01:47:22;;;;;;;13.23;11.33;;;;;;;;;;512038;29;1982;-76
2022/02/04 01:47:40;;;;;;;13.25;11.63;;;;;;;;;;513286;28;920;-77
2022/02/04 01:47:56;;;;;;;12.77;11.48;;;;;;;;;;512163;28;1280;-77
2022/02/04 01:48:11;;;;;;;12.52;11.23;;;;;;;;;;510281;29;1300;-76
2022/02/04 01:48:27;;;;;;;13.07;11.67;;;;;;;;;;509951;29;690;-76
2022/02/04 01:48:42;;;;;;;13.38;11.98;;;;;;;;;;510053;29;974;-76
2022/02/04 01:48:58;;;;;;;13.33;12.03;;;;;;;;;;510171;29;1176;-76
2022/02/04 01:49:13;;;;;;;13.13;11.73;;;;;;;;;;510984;29;1395;-76
2022/02/04 01:49:30;;;;;;;12.87;11.47;;;;;;;;;;512235;29;935;-77
2022/02/04 01:49:45;;;;;;;12.55;11.25;;;;;;;;;;512835;28;846;-76
2022/02/04 01:50:01;;;;;;;12.53;11.23;;;;;;;;;;514190;28;824;-76
2022/02/04 01:50:16;;;;;;;12.82;11.45;;;;;;;;;;516337;28;836;-76
2022/02/04 01:50:32;;;;;;;12.80;11.50;;;;;;;;;;516101;28;999;-76
2022/02/04 01:50:49;;;;;;;12.40;11.20;;;;;;;;;;516091;28;753;-76
2022/02/04 01:51:06;;;;;;;12.50;11.23;;;;;;;;;;516378;28;785;-77
2022/02/04 01:51:22;;;;;;;13.05;11.68;;;;;;;;;;516568;28;821;-77
2022/02/04 01:51:37;;;;;;;13.05;11.65;;;;;;;;;;516197;28;1208;-76
2022/02/04 01:51:52;;;;;;;13.20;11.80;;;;;;;;;;516208;28;1157;-76
2022/02/04 01:52:08;;;;;;;13.00;11.67;;;;;;;;;;516428;28;872;-77
2022/02/04 01:52:23;;;;;;;12.82;11.43;;;;;;;;;;516252;28;1176;-77
2022/02/04 01:52:39;;;;;;;13.07;11.70;;;;;;;;;;515819;28;879;-76
2022/02/04 01:52:58;;;;;;;12.93;11.63;;;;;;;;;;515893;28;856;-77
2022/02/04 01:53:16;;;;;;;13.20;11.80;;;;;;;;;;514066;28;1506;-77
2022/02/04 01:53:32;;;;;;;12.95;11.60;;;;;;;;;;514015;28;908;-77
2022/02/04 01:53:47;;;;;;;13.33;11.70;;;;;;;;;;511989;29;1334;-78
2022/02/04 01:54:02;;;;;;;13.50;11.90;;;;;;;;;;512122;29;777;-77
2022/02/04 01:54:18;;;;;;;13.23;11.80;;;;;;;;;;513399;28;793;-77
2022/02/04 01:54:33;;;;;;;12.70;11.40;;;;;;;;;;514345;28;837;-77
2022/02/04 01:54:49;;;;;;;12.60;11.30;;;;;;;;;;511595;29;1398;-77
2022/02/04 01:55:04;;;;;;;13.30;11.90;;;;;;;;;;512372;28;757;-77
2022/02/04 01:55:21;;;;;;;13.45;12.05;;;;;;;;;;514367;28;940;-77
2022/02/04 01:55:36;;;;;;;13.32;11.93;;;;;;;;;;512529;28;1237;-77
2022/02/04 01:55:52;;;;;;;13.23;11.73;;;;;;;;;;514092;28;916;-77
2022/02/04 01:56:12;;;;;;;13.10;11.70;;;;;;;;;;512305;29;1410;-76
2022/02/04 01:56:27;;;;;;;12.73;11.43;;;;;;;;;;510458;29;719;-76
2022/02/04 01:56:43;;;;;;;12.90;11.60;;;;;;;;;;511403;29;730;-76
2022/02/04 01:56:58;;;;;;;13.07;11.67;;;;;;;;;;509919;29;1142;-76
2022/02/04 01:57:14;;;;;;;12.90;11.35;;;;;;;;;;510400;29;857;-76
2022/02/04 01:57:32;;;;;;;13.03;11.53;;;;;;;;;;511124;29;864;-76
2022/02/04 01:57:47;;;;;;;13.32;11.93;;;;;;;;;;510109;29;1213;-76
2022/02/04 01:58:03;;;;;;;13.07;11.77;;;;;;;;;;511657;28;880;-76
2022/02/04 01:58:18;;;;;;;12.77;11.47;;;;;;;;;;512121;29;1137;-76
2022/02/04 01:58:35;;;;;;;13.20;11.75;;;;;;;;;;512205;29;715;-76
2022/02/04 01:58:50;;;;;;;13.70;12.00;;;;;;;;;;512721;28;1335;-76
2022/02/04 01:59:06;;;;;;;13.73;12.10;;;;;;;;;;513764;28;812;-76
2022/02/04 01:59:21;;;;;;;13.33;11.87;;;;;;;;;;514166;28;730;-76
2022/02/04 01:59:36;;;;;;;12.77;11.38;;;;;;;;;;513869;28;872;-76
2022/02/04 01:59:52;;;;;;;12.63;11.33;;;;;;;;;;511827;29;1188;-76
2022/02/04 02:00:09;;;;;;;12.63;11.40;;;;;;;;;;511250;28;1091;-76
2022/02/04 02:00:24;;;;;;;13.07;11.70;;;;;;;;;;512113;29;973;-76
2022/02/04 02:00:40;;;;;;;13.30;11.90;;;;;;;;;;512535;28;706;-77
2022/02/04 02:00:56;;;;;;;13.02;11.70;;;;;;;;;;513942;28;1007;-76
2022/02/04 02:01:11;;;;;;;13.00;11.60;;;;;;;;;;513726;28;899;-77
2022/02/04 02:01:27;;;;;;;13.00;11.60;;;;;;;;;;511829;29;1348;-77
2022/02/04 02:01:42;;;;;;;12.68;11.38;;;;;;;;;;512594;28;943;-77
2022/02/04 02:01:57;;;;;;;12.77;11.47;;;;;;;;;;514107;28;896;-77
2022/02/04 02:02:13;;;;;;;12.97;11.67;;;;;;;;;;514115;28;710;-76
2022/02/04 02:02:28;;;;;;;12.70;11.32;;;;;;;;;;514392;28;836;-77
2022/02/04 02:02:44;;;;;;;12.60;11.30;;;;;;;;;;514262;28;884;-76
2022/02/04 02:02:59;;;;;;;12.65;11.35;;;;;;;;;;514139;28;1278;-76
2022/02/04 02:03:15;;;;;;;12.77;11.47;;;;;;;;;;514113;28;1316;-77
2022/02/04 02:03:31;;;;;;;12.88;11.57;;;;;;;;;;516267;28;1335;-76
2022/02/04 02:03:46;;;;;;;12.38;11.13;;;;;;;;;;516108;28;855;-76
2022/02/04 02:04:04;;;;;;;12.50;11.20;;;;;;;;;;515271;28;1964;-76
2022/02/04 02:04:20;;;;;;;13.80;11.60;;;;;;;;;;516240;28;796;-77
2022/02/04 02:04:35;;;;;;;13.77;11.70;;;;;;;;;;514175;28;1173;-77
2022/02/04 02:04:50;;;;;;;13.17;11.80;;;;;;;;;;514139;28;1257;-76
2022/02/04 02:05:06;;;;;;;12.73;11.43;;;;;;;;;;511251;29;1169;-77
2022/02/04 02:05:21;;;;;;;12.98;11.45;;;;;;;;;;511907;29;1181;-76
2022/02/04 02:05:37;;;;;;;13.20;11.75;;;;;;;;;;512044;29;849;-76
2022/02/04 02:05:56;;;;;;;13.00;11.70;;;;;;;;;;509711;29;1217;-76
2022/02/04 02:06:11;;;;;;;12.80;11.50;;;;;;;;;;510141;29;790;-76
2022/02/04 02:06:57;;;;;;;12.48;11.25;;;;;;;;;;510953;29;762;-76
2022/02/04 02:07:17;;;;;;;13.20;11.80;;;;;;;;;;515972;28;1952;-76
2022/02/04 02:07:40;;;;;;;12.75;11.40;;;;;;;;;;516221;28;809;-76
2022/02/04 02:08:04;;;;;;;12.33;11.03;;;;;;;;;;516341;28;860;-76
2022/02/04 02:08:20;;;;;;;13.05;11.68;;;;;;;;;;516290;28;907;-77
2022/02/04 02:08:39;;;;;;;12.60;11.30;;;;;;;;;;516143;28;1476;-76
2022/02/04 02:08:54;;;;;;;12.55;11.25;;;;;;;;;;516324;28;1275;-76
2022/02/04 02:09:10;;;;;;;13.10;11.70;;;;;;;;;;514185;28;1293;-76
2022/02/04 02:10:04;;;;;;;13.20;11.60;;;;;;;;;;513790;28;745;-76
2022/02/04 02:10:12;;;;;;;12.77;11.48;;;;;;;;;;511632;28;1211;-76
2022/02/04 02:10:28;;;;;;;12.88;11.57;;;;;;;;;;514361;28;879;-76
2022/02/04 02:10:45;;;;;;;12.98;11.68;;;;;;;;;;514737;28;812;-77
2022/02/04 02:11:01;;;;;;;13.02;11.63;;;;;;;;;;516255;28;1371;-77
2022/02/04 02:11:16;;;;;;;13.10;11.70;;;;;;;;;;516377;28;785;-76
2022/02/04 02:11:31;;;;;;;12.97;11.67;;;;;;;;;;513633;28;1177;-77
2022/02/04 02:11:51;;;;;;;12.73;11.43;;;;;;;;;;511944;29;1398;-77
2022/02/04 02:12:08;;;;;;;13.00;11.60;;;;;;;;;;511993;29;1522;-76
2022/02/04 02:12:28;;;;;;;13.13;11.63;;;;;;;;;;509777;29;1459;-76
2022/02/04 02:13:53;;;;;;;13.20;11.77;;;;;;;;;;509675;29;739;-77
2022/02/04 02:14:13;;;;;;;14.10;12.52;;;;;;;;;;512055;29;825;-77
2022/02/04 02:14:30;;;;;;;14.20;12.50;;;;;;;;;;513722;28;2131;-77
2022/02/04 02:14:54;;;;;;;14.05;12.48;;;;;;;;;;516968;28;1894;-76
2022/02/04 02:16:21;;;;;;;13.07;11.77;;;;;;;;;;516082;28;651;-76
2022/02/04 02:33:07;;;;;;;12.63;11.32;;;;;;;;;;514228;28;856;-76
2022/02/04 02:35:50;;;;;;;;;;;;;;;;;;;;;
2022/02/04 02:36:34;;;;;;;;;;;;;;;;;;;;;
2022/02/04 02:39:12;;;;;;;12.13;10.93;;;;;;;;;;514147;28;702;-76
2022/02/04 02:39:18;;;;;;;12.57;10.98;;;;;;;;;;512931;28;1188;-76
2022/02/04 02:43:18;;;;;;;11.73;10.52;;;;;;;;;;514450;28;805;-76
2022/02/04 02:44:12;;;;;;;12.30;11.00;;;;;;;;;;514315;28;801;-77
2022/02/04 02:44:56;;;;;;;12.35;10.75;;;;;;;;;;514241;28;821;-76
2022/02/04 02:45:35;;;;;;;11.60;10.40;;;;;;;;;;512612;28;1151;-76
2022/02/04 02:46:00;;;;;;;12.50;11.05;;;;;;;;;;513678;28;1272;-76
2022/02/04 02:47:46;;;;;;;12.20;10.95;;;;;;;;;;514327;28;1906;-76
2022/02/04 02:48:31;;;;;;;;;;;;;;;;;;;;;
2022/02/04 02:51:51;;;;;;;11.95;10.70;;;;;;;;;;507947;29;1110;-76
2022/02/04 02:52:19;;;;;;;;;;;;;;;;;;;;;
2022/02/04 02:54:05;;;;;;;11.02;9.93;;;;;;;;;;510141;29;757;-76
2022/02/04 02:55:22;;;;;;;11.50;10.10;;;;;;;;;;509238;29;640;-76
2022/02/04 02:56:25;;;;;;;11.27;10.13;;;;;;;;;;515822;28;987;-76
2022/02/04 02:57:20;;;;;;;11.10;9.90;;;;;;;;;;516108;28;585;-76
2022/02/04 02:58:54;;;;;;;11.82;10.60;;;;;;;;;;509819;29;1215;-76
2022/02/04 02:59:16;;;;;;;11.10;9.95;;;;;;;;;;513555;28;1005;-76
2022/02/04 02:59:45;;;;;;;11.35;10.13;;;;;;;;;;513759;28;740;-76
2022/02/04 03:00:11;;;;;;;11.55;10.35;;;;;;;;;;513369;28;903;-76
2022/02/04 03:00:53;;;;;;;11.60;10.40;;;;;;;;;;513856;28;805;-76
2022/02/04 03:01:09;;;;;;;11.50;10.30;;;;;;;;;;516055;28;821;-76
2022/02/04 03:01:26;;;;;;;11.00;9.90;;;;;;;;;;515855;28;758;-76
2022/02/04 03:01:46;;;;;;;10.82;9.73;;;;;;;;;;516213;28;757;-76
2022/02/04 03:02:01;;;;;;;10.75;9.65;;;;;;;;;;516331;28;883;-76
2022/02/04 03:02:16;;;;;;;11.07;9.90;;;;;;;;;;516035;28;777;-77
2022/02/04 03:02:33;;;;;;;11.40;10.15;;;;;;;;;;516147;28;1057;-76
2022/02/04 03:02:48;;;;;;;11.60;10.02;;;;;;;;;;516114;28;718;-76
2022/02/04 03:03:08;;;;;;;11.60;10.10;;;;;;;;;;515892;28;1338;-76
2022/02/04 03:03:27;;;;;;;11.20;10.10;;;;;;;;;;516026;28;965;-76
2022/02/04 03:03:47;;;;;;;11.10;10.00;;;;;;;;;;515796;28;797;-76
2022/02/04 03:04:08;;;;;;;11.13;9.93;;;;;;;;;;516065;28;840;-76
2022/02/04 03:04:23;;;;;;;11.32;10.18;;;;;;;;;;516031;28;1457;-76
2022/02/04 03:04:38;;;;;;;11.47;10.27;;;;;;;;;;514146;28;1278;-76
2022/02/04 03:04:53;;;;;;;11.70;10.50;;;;;;;;;;513705;28;1482;-76
2022/02/04 03:05:09;;;;;;;11.38;10.18;;;;;;;;;;513637;28;1366;-76
2022/02/04 03:05:24;;;;;;;10.93;9.83;;;;;;;;;;513762;28;785;-76
2022/02/04 03:05:39;;;;;;;11.70;10.27;;;;;;;;;;513124;28;1157;-76
2022/02/04 03:05:55;;;;;;;11.57;10.38;;;;;;;;;;511823;29;1284;-76
2022/02/04 03:06:10;;;;;;;11.27;10.13;;;;;;;;;;512395;28;845;-76
2022/02/04 03:06:25;;;;;;;11.33;10.13;;;;;;;;;;512083;29;1371;-76
2022/02/04 03:06:42;;;;;;;11.15;10.00;;;;;;;;;;510194;29;1290;-77
2022/02/04 03:06:57;;;;;;;11.65;10.40;;;;;;;;;;510141;29;908;-76
2022/02/04 03:07:13;;;;;;;11.70;10.50;;;;;;;;;;510125;29;1972;-76
2022/02/04 03:07:28;;;;;;;11.30;10.10;;;;;;;;;;510621;29;825;-76
2022/02/04 03:07:43;;;;;;;11.53;10.33;;;;;;;;;;512046;28;748;-76
2022/02/04 03:07:58;;;;;;;11.80;10.60;;;;;;;;;;511863;29;1134;-76
2022/02/04 03:08:14;;;;;;;11.50;10.30;;;;;;;;;;512134;29;1437;-76
2022/02/04 03:08:30;;;;;;;11.48;10.25;;;;;;;;;;512594;28;964;-76
2022/02/04 03:08:45;;;;;;;11.50;10.30;;;;;;;;;;514188;28;699;-76
2022/02/04 03:09:00;;;;;;;11.30;10.10;;;;;;;;;;514390;28;746;-75
2022/02/04 03:09:16;;;;;;;11.00;9.90;;;;;;;;;;516287;28;833;-76
2022/02/04 03:09:32;;;;;;;11.32;10.10;;;;;;;;;;516247;28;848;-76
2022/02/04 03:09:47;;;;;;;11.50;10.30;;;;;;;;;;513656;28;1475;-76
2022/02/04 03:10:03;;;;;;;11.37;10.20;;;;;;;;;;511837;28;1129;-76
2022/02/04 03:10:18;;;;;;;11.32;10.13;;;;;;;;;;513894;28;1304;-76
2022/02/04 03:10:33;;;;;;;10.93;9.80;;;;;;;;;;514144;28;1263;-76
2022/02/04 03:10:54;;;;;;;11.27;9.80;;;;;;;;;;514224;28;734;-76
2022/02/04 03:11:09;;;;;;;12.40;10.35;;;;;;;;;;514046;28;722;-76
2022/02/04 03:11:25;;;;;;;11.20;10.10;;;;;;;;;;514077;28;762;-76
2022/02/04 03:11:40;;;;;;;11.10;9.90;;;;;;;;;;514823;28;1195;-76
2022/02/04 03:11:55;;;;;;;11.15;10.02;;;;;;;;;;513514;28;1176;-76
2022/02/04 03:12:11;;;;;;;11.10;10.00;;;;;;;;;;514104;28;1342;-75
2022/02/04 03:12:28;;;;;;;11.18;10.07;;;;;;;;;;514169;28;749;-76
2022/02/04 03:12:44;;;;;;;11.23;10.05;;;;;;;;;;514250;28;797;-76
2022/02/04 03:12:59;;;;;;;11.38;9.88;;;;;;;;;;514060;28;782;-76
2022/02/04 03:13:15;;;;;;;11.50;9.87;;;;;;;;;;512026;29;1271;-76
2022/02/04 03:13:32;;;;;;;11.13;9.93;;;;;;;;;;512489;28;837;-76
2022/02/04 03:13:47;;;;;;;10.75;9.70;;;;;;;;;;514095;28;852;-76
2022/02/04 03:14:03;;;;;;;10.40;9.40;;;;;;;;;;512204;28;1394;-76
2022/02/04 03:14:18;;;;;;;10.60;9.50;;;;;;;;;;513872;28;733;-75
2022/02/04 03:14:33;;;;;;;10.65;9.55;;;;;;;;;;513717;28;1195;-76
2022/02/04 03:14:49;;;;;;;10.80;9.70;;;;;;;;;;513420;28;1212;-76
2022/02/04 03:15:05;;;;;;;10.60;9.50;;;;;;;;;;511618;28;1396;-76
2022/02/04 03:15:21;;;;;;;11.05;9.88;;;;;;;;;;514121;28;1458;-76
2022/02/04 03:15:37;;;;;;;12.10;10.20;;;;;;;;;;514151;28;1487;-76
2022/02/04 03:16:01;;;;;;;11.93;10.10;;;;;;;;;;511836;29;1283;-76
2022/02/04 03:16:18;;;;;;;11.10;9.90;;;;;;;;;;512014;29;820;-76
2022/02/04 03:16:34;;;;;;;11.13;9.85;;;;;;;;;;513688;28;1750;-76
2022/02/04 03:16:49;;;;;;;10.90;9.77;;;;;;;;;;514135;28;797;-76
2022/02/04 03:17:08;;;;;;;10.43;9.33;;;;;;;;;;515915;28;844;-75
2022/02/04 03:17:24;;;;;;;10.55;9.45;;;;;;;;;;513966;28;1480;-76
2022/02/04 03:17:41;;;;;;;11.00;9.90;;;;;;;;;;513917;28;1341;-76
2022/02/04 03:18:01;;;;;;;11.27;10.13;;;;;;;;;;514064;28;793;-76
2022/02/04 03:18:23;;;;;;;11.73;10.10;;;;;;;;;;513638;28;1351;-76
2022/02/04 03:18:42;;;;;;;11.27;9.75;;;;;;;;;;516063;28;808;-76
2022/02/04 03:18:59;;;;;;;10.80;9.70;;;;;;;;;;515928;28;753;-76
2022/02/04 03:19:15;;;;;;;11.15;10.02;;;;;;;;;;515955;28;722;-76
2022/02/04 03:19:30;;;;;;;11.38;10.18;;;;;;;;;;514018;28;1300;-76
2022/02/04 03:19:50;;;;;;;11.17;9.97;;;;;;;;;;512077;29;1438;-76
2022/02/04 03:20:09;;;;;;;11.20;10.02;;;;;;;;;;511747;28;852;-76
2022/02/04 03:20:24;;;;;;;11.15;9.95;;;;;;;;;;511849;29;1618;-76
2022/02/04 03:20:48;;;;;;;11.10;9.98;;;;;;;;;;512065;29;1374;-76
2022/02/04 03:21:20;;;;;;;11.52;10.13;;;;;;;;;;509893;29;1272;-76
2022/02/04 03:21:40;;;;;;;11.85;10.65;;;;;;;;;;512627;28;1007;-76
2022/02/04 03:22:02;;;;;;;11.23;10.13;;;;;;;;;;514029;28;907;-76
2022/02/04 03:22:17;;;;;;;11.32;10.23;;;;;;;;;;513354;28;1486;-76
2022/02/04 03:22:33;;;;;;;10.98;9.88;;;;;;;;;;512249;28;1396;-77
2022/02/04 03:22:49;;;;;;;11.37;9.63;;;;;;;;;;512188;28;1451;-76
2022/02/04 03:23:04;;;;;;;11.70;9.63;;;;;;;;;;515803;28;811;-76
2022/02/04 03:23:21;;;;;;;10.97;9.87;;;;;;;;;;514689;28;961;-76
2022/02/04 03:23:39;;;;;;;11.18;10.07;;;;;;;;;;514824;28;828;-76
2022/02/04 03:24:06;;;;;;;11.15;9.95;;;;;;;;;;513179;28;955;-79
2022/02/04 03:24:23;;;;;;;11.05;9.90;;;;;;;;;;513912;28;1120;-79
2022/02/04 03:24:41;;;;;;;10.98;9.82;;;;;;;;;;515897;28;819;-78
2022/02/04 03:25:00;;;;;;;11.10;9.98;;;;;;;;;;515407;28;805;-78
2022/02/04 03:25:17;;;;;;;11.07;9.95;;;;;;;;;;515998;28;777;-78
2022/02/04 03:25:38;;;;;;;10.70;9.60;;;;;;;;;;516105;28;773;-77
2022/02/04 03:25:59;;;;;;;10.70;9.60;;;;;;;;;;513714;28;919;-78